Capitan, New Mexico
Current Conditions -  °F | °C
As of 1:15 PM on Sunday 23 Nov 2014 (Local Time) from KSRR Reporting Station
Scattered Clouds Scattered Clouds  
Wind Chill: 34°   Ceiling: Unl
Heat Index: 43°   Visibility: 10mi
Dew Point: 19°   Wind: 23mph
Humidity: 39%   Direction: 300°WNW
Pressure: 29.81"   Gusts: 39mph
Location:  33.55°N, 105.57°W
Report Text: KSRR 232015Z AUTO 30020G34KT 10SM SCT060 06/M07 A2981 RMK AO2
Loading
Personal Weather Stations






























Interactive Weather Map New forecast layout! Learn more

10-Day Weather Forecast

Advertisements
Track Severe Weather on mobile